createdAt,value
2018-09-27T03:41:47.156Z,6.11
2018-09-27T05:34:56.598Z,6.31
2018-09-27T05:35:43.038Z,6.26
2018-09-27T06:01:56.058Z,6.20
2018-09-27T06:18:28.395Z,6.46
2018-09-27T06:19:18.416Z,6.52
2018-09-27T06:21:21.216Z,6.64
2018-09-27T06:26:05.432Z,6.77
2018-09-27T06:35:25.182Z,7.15
2018-09-27T06:38:55.449Z,7.25
2018-09-27T06:39:56.020Z,7.36
2018-09-27T06:40:58.007Z,7.45
2018-09-27T06:42:56.150Z,7.54
2018-09-27T06:43:58.551Z,7.56
2018-09-27T06:44:59.306Z,7.72
2018-09-27T06:45:59.588Z,7.67
2018-09-27T07:18:29.265Z,13.46
2018-09-27T07:20:29.761Z,12.79
2018-09-27T07:21:32.956Z,12.43
2018-09-27T07:22:29.886Z,12.25
2018-09-27T07:23:32.251Z,12.17
2018-09-27T07:24:30.316Z,11.84
2018-09-27T07:25:30.859Z,11.72
2018-09-27T07:26:29.770Z,11.60
2018-09-27T07:27:28.155Z,11.43
2018-09-27T07:28:31.255Z,11.36
2018-09-27T07:29:30.907Z,11.29
2018-09-27T07:30:29.186Z,11.36
2018-09-27T07:31:28.603Z,11.37
2018-09-27T07:32:28.680Z,11.36
2018-09-27T07:33:29.512Z,11.36
2018-09-27T07:34:28.623Z,11.43
2018-09-27T07:35:30.033Z,11.52
2018-09-27T07:36:29.626Z,11.59
2018-09-27T07:37:30.992Z,11.68
2018-09-27T07:38:30.696Z,11.70
2018-09-27T07:39:30.038Z,11.80
2018-09-27T07:40:30.189Z,11.97
2018-09-27T07:42:30.333Z,12.07
2018-09-27T07:43:31.131Z,12.12
2018-09-27T07:44:31.403Z,12.20
2018-09-27T07:45:30.832Z,12.28
2018-09-27T07:46:30.825Z,12.24
2018-09-27T07:47:31.283Z,12.29
2018-09-27T07:48:31.728Z,12.39
2018-09-27T07:49:31.944Z,12.37
2018-09-27T07:50:31.495Z,12.43
2018-09-27T07:51:31.913Z,12.57
2018-09-27T07:52:32.014Z,12.45
2018-09-27T07:53:32.276Z,12.53
2018-09-27T07:54:32.344Z,12.47
2018-09-27T07:55:32.684Z,12.54
2018-09-27T07:56:32.221Z,12.55
2018-09-27T07:57:32.474Z,12.40
2018-09-27T07:58:32.752Z,12.42
2018-09-27T07:59:33.753Z,12.53
2018-09-27T08:00:33.053Z,12.45
2018-09-27T08:01:33.397Z,12.45
2018-09-27T08:02:34.182Z,12.55
2018-09-27T08:03:33.696Z,12.75
2018-09-27T08:04:35.860Z,12.80
2018-09-27T08:05:33.953Z,12.97
2018-09-27T08:06:34.245Z,12.97
2018-09-27T08:07:34.759Z,13.13
2018-09-27T08:08:34.418Z,13.16
2018-09-27T08:09:36.825Z,13.30
2018-09-27T08:10:35.185Z,13.37
2018-09-27T08:11:35.251Z,13.49
2018-09-27T08:12:35.245Z,13.63
2018-09-27T08:13:35.180Z,13.71
2018-09-27T08:14:48.948Z,13.83
2018-09-27T08:20:03.626Z,14.12
2018-09-27T08:49:22.780Z,16.89
2018-09-27T08:50:30.958Z,16.96
2018-09-27T08:57:08.336Z,17.41
2018-09-27T08:58:23.203Z,17.64
2018-09-27T08:59:06.122Z,17.67
2018-09-27T09:03:33.574Z,18.01
2018-09-27T09:07:25.647Z,18.34
2018-09-27T09:28:32.378Z,24.54
2018-09-27T10:31:07.091Z,31.52
2018-09-27T12:17:25.830Z,35.14
2018-09-27T12:29:52.702Z,34.57
2018-09-27T12:30:09.068Z,34.86
2018-09-27T12:59:50.592Z,37.47
2018-09-27T13:05:24.683Z,37.03
2018-09-27T13:07:37.282Z,36.47
2018-09-27T13:13:04.651Z,35.95
2018-09-27T13:14:48.250Z,36.08
2018-09-27T13:21:12.285Z,36.40
2018-09-27T13:28:20.962Z,35.71
2018-09-27T13:29:33.736Z,35.71
2018-09-27T13:32:10.102Z,36.43
2018-09-27T13:33:11.276Z,36.64
2018-09-27T13:34:10.680Z,36.46
2018-09-27T13:36:18.018Z,36.51
2018-09-27T13:37:12.528Z,36.39
2018-09-27T13:38:10.575Z,36.73
2018-09-27T13:39:11.034Z,36.05
2018-09-27T13:40:14.835Z,35.58
2018-09-27T13:41:11.538Z,35.55
2018-09-27T13:42:13.220Z,35.67
2018-09-27T13:43:11.700Z,35.82
2018-09-27T13:44:13.963Z,35.51
2018-09-27T13:45:12.306Z,35.78
2018-09-27T13:46:21.289Z,35.92
2018-09-27T13:47:20.073Z,36.02
2018-09-27T13:48:14.277Z,35.71
2018-09-27T13:49:20.334Z,35.93
2018-09-27T13:50:13.903Z,36.31
2018-09-27T13:51:12.642Z,36.20
2018-09-27T13:52:16.024Z,36.39
2018-09-27T13:53:13.986Z,36.23
2018-09-27T13:54:10.988Z,36.39
2018-09-27T13:55:11.136Z,36.35
2018-09-27T13:56:11.216Z,36.31
2018-09-27T13:57:11.506Z,36.45
2018-09-27T13:58:11.714Z,36.30
2018-09-27T13:59:11.869Z,36.18
2018-09-27T14:00:12.045Z,36.37
2018-09-27T14:01:12.273Z,36.17
2018-09-27T14:02:12.481Z,36.62
2018-09-27T14:03:12.607Z,36.65
2018-09-27T14:04:12.799Z,36.96
2018-09-27T14:06:13.041Z,35.97
2018-09-27T14:07:13.794Z,36.33
2018-09-27T14:08:13.808Z,36.43
2018-09-27T14:09:14.418Z,36.59
2018-09-27T14:10:14.035Z,36.61
2018-09-27T14:11:14.018Z,36.88
2018-09-27T14:12:14.272Z,36.55
2018-09-27T14:13:14.412Z,36.84
2018-09-27T14:14:14.620Z,37.17
2018-09-27T14:15:14.872Z,37.13
2018-09-27T14:16:15.058Z,36.83
2018-09-27T14:17:15.196Z,36.79
2018-09-27T14:18:15.380Z,36.83
2018-09-27T14:19:15.618Z,36.67
2018-09-27T14:20:15.872Z,36.70
2018-09-27T14:21:16.752Z,36.79
2018-09-27T14:22:16.142Z,36.98
2018-09-27T14:23:16.268Z,36.68
2018-09-27T14:24:16.420Z,36.27
2018-09-27T14:25:16.672Z,35.73
2018-09-27T14:26:17.001Z,35.56
2018-09-27T14:27:16.997Z,35.41
2018-09-27T14:28:17.237Z,35.55
2018-09-27T14:29:17.461Z,35.61
2018-09-27T14:30:17.571Z,36.00
2018-09-27T14:31:17.840Z,35.97
2018-09-27T14:32:18.040Z,35.68
2018-09-27T14:33:18.179Z,35.95
2018-09-27T14:34:18.375Z,35.82
2018-09-27T14:35:18.575Z,35.95
2018-09-27T14:36:18.744Z,35.73
2018-09-27T14:37:18.986Z,35.49
2018-09-27T14:38:19.127Z,35.64
2018-09-27T14:39:19.351Z,35.30
2018-09-27T14:40:19.504Z,34.96
2018-09-27T14:41:19.631Z,34.02
2018-09-27T14:42:19.835Z,33.32
2018-09-27T14:43:19.994Z,32.46
2018-09-27T14:44:20.227Z,31.33
2018-09-27T14:45:20.351Z,30.70
2018-09-27T14:46:20.628Z,30.10
2018-09-27T14:47:20.997Z,29.61
2018-09-27T14:48:21.108Z,29.41
2018-09-27T14:49:21.287Z,29.26
2018-09-27T14:50:21.884Z,29.17
2018-09-27T14:51:21.504Z,28.88
2018-09-27T14:52:21.724Z,28.74
2018-09-27T14:53:22.650Z,28.48
2018-09-27T14:54:22.117Z,28.29
2018-09-27T14:55:22.405Z,28.20
2018-09-27T14:56:24.016Z,28.10
2018-09-27T14:57:22.759Z,27.80
2018-09-27T14:58:23.180Z,27.95
2018-09-27T14:59:22.985Z,27.87
2018-09-27T15:00:23.802Z,27.65
2018-09-27T15:01:23.517Z,27.64
2018-09-27T15:02:23.613Z,27.65
2018-09-27T15:03:23.906Z,27.29
2018-09-27T15:04:23.823Z,27.26
2018-09-27T15:05:24.328Z,27.20
2018-09-27T15:06:30.374Z,27.20
2018-09-27T15:07:25.114Z,27.20
2018-09-27T15:13:03.163Z,26.60
2018-09-27T15:19:36.975Z,26.23
2018-09-27T16:09:58.999Z,24.36
2018-09-27T17:10:05.930Z,20.11
2018-09-27T17:12:20.459Z,20.07
2018-09-27T17:41:20.916Z,17.85
2018-09-27T17:50:37.882Z,17.08
2018-09-27T17:51:37.247Z,16.91
2018-09-27T17:55:15.961Z,16.57
2018-09-27T17:59:29.197Z,16.38
2018-09-27T18:00:08.371Z,16.23
2018-09-27T18:01:12.963Z,16.12
2018-09-27T18:02:29.555Z,16.00
2018-09-27T18:03:29.257Z,15.98
2018-09-27T18:04:27.096Z,16.00
2018-09-27T18:05:27.231Z,16.01
2018-09-27T18:06:28.575Z,16.01
2018-09-27T18:07:27.666Z,15.95
2018-09-27T18:08:27.310Z,15.94
2018-09-27T18:09:27.967Z,16.02
2018-09-27T18:10:29.709Z,15.98
2018-09-27T18:11:29.853Z,15.84
2018-09-27T18:12:28.044Z,15.86
2018-09-27T18:13:28.864Z,15.91
2018-09-27T18:14:28.922Z,15.92
2018-09-27T18:15:30.148Z,15.95
2018-09-27T18:16:28.699Z,15.80
2018-09-27T18:17:29.258Z,15.92
2018-09-27T18:18:33.168Z,15.84
